sensor_id;sensor_type;location;lat;lon;timestamp;P1;durP1;ratioP1;P2;durP2;ratioP2
29906;SDS011;16776;50.958;10.994;2024-02-28T00:01:49;7.07;;;3.65;;
29906;SDS011;16776;50.958;10.994;2024-02-28T00:04:17;6.13;;;4.47;;
29906;SDS011;16776;50.958;10.994;2024-02-28T00:06:44;7.38;;;4.00;;
29906;SDS011;16776;50.958;10.994;2024-02-28T00:09:11;5.00;;;3.50;;
29906;SDS011;16776;50.958;10.994;2024-02-28T00:11:41;6.00;;;4.05;;
29906;SDS011;16776;50.958;10.994;2024-02-28T00:14:08;5.47;;;4.03;;
29906;SDS011;16776;50.958;10.994;2024-02-28T00:16:39;6.25;;;4.38;;
29906;SDS011;16776;50.958;10.994;2024-02-28T00:19:06;7.60;;;4.68;;
29906;SDS011;16776;50.958;10.994;2024-02-28T00:21:32;6.90;;;4.25;;
29906;SDS011;16776;50.958;10.994;2024-02-28T00:23:59;6.43;;;3.95;;
29906;SDS011;16776;50.958;10.994;2024-02-28T00:26:26;7.28;;;4.18;;
29906;SDS011;16776;50.958;10.994;2024-02-28T00:28:52;8.55;;;4.47;;
29906;SDS011;16776;50.958;10.994;2024-02-28T00:31:19;6.10;;;3.70;;
29906;SDS011;16776;50.958;10.994;2024-02-28T00:33:48;6.72;;;4.30;;
29906;SDS011;16776;50.958;10.994;2024-02-28T00:36:14;7.32;;;4.65;;
29906;SDS011;16776;50.958;10.994;2024-02-28T00:38:41;6.25;;;3.95;;
29906;SDS011;16776;50.958;10.994;2024-02-28T00:41:08;7.40;;;3.83;;
29906;SDS011;16776;50.958;10.994;2024-02-28T00:43:35;5.97;;;3.83;;
29906;SDS011;16776;50.958;10.994;2024-02-28T00:46:02;7.95;;;4.57;;
29906;SDS011;16776;50.958;10.994;2024-02-28T00:48:28;6.82;;;3.80;;
29906;SDS011;16776;50.958;10.994;2024-02-28T00:50:56;7.97;;;4.13;;
29906;SDS011;16776;50.958;10.994;2024-02-28T00:53:23;7.25;;;4.50;;
29906;SDS011;16776;50.958;10.994;2024-02-28T00:55:50;7.63;;;4.00;;
29906;SDS011;16776;50.958;10.994;2024-02-28T00:58:17;6.20;;;3.83;;
29906;SDS011;16776;50.958;10.994;2024-02-28T01:00:43;6.93;;;4.03;;
29906;SDS011;16776;50.958;10.994;2024-02-28T01:03:10;6.05;;;4.05;;
29906;SDS011;16776;50.958;10.994;2024-02-28T01:05:39;7.07;;;3.90;;
29906;SDS011;16776;50.958;10.994;2024-02-28T01:08:07;7.10;;;4.22;;
29906;SDS011;16776;50.958;10.994;2024-02-28T01:10:34;8.25;;;4.00;;
29906;SDS011;16776;50.958;10.994;2024-02-28T01:13:01;7.45;;;4.20;;
29906;SDS011;16776;50.958;10.994;2024-02-28T01:15:28;5.82;;;3.90;;
29906;SDS011;16776;50.958;10.994;2024-02-28T01:17:54;6.68;;;3.83;;
29906;SDS011;16776;50.958;10.994;2024-02-28T01:20:21;6.85;;;3.72;;
29906;SDS011;16776;50.958;10.994;2024-02-28T01:22:47;6.57;;;3.72;;
29906;SDS011;16776;50.958;10.994;2024-02-28T01:25:15;6.30;;;3.83;;
29906;SDS011;16776;50.958;10.994;2024-02-28T01:27:42;10.35;;;4.10;;
29906;SDS011;16776;50.958;10.994;2024-02-28T01:30:09;8.15;;;4.60;;
29906;SDS011;16776;50.958;10.994;2024-02-28T01:32:36;6.93;;;4.10;;
29906;SDS011;16776;50.958;10.994;2024-02-28T01:35:03;7.00;;;4.18;;
29906;SDS011;16776;50.958;10.994;2024-02-28T01:37:30;5.93;;;3.55;;
29906;SDS011;16776;50.958;10.994;2024-02-28T01:39:57;6.57;;;4.13;;
29906;SDS011;16776;50.958;10.994;2024-02-28T01:42:25;8.30;;;4.10;;
29906;SDS011;16776;50.958;10.994;2024-02-28T01:44:51;6.35;;;4.07;;
29906;SDS011;16776;50.958;10.994;2024-02-28T01:47:18;8.50;;;4.70;;
29906;SDS011;16776;50.958;10.994;2024-02-28T01:49:45;6.45;;;3.78;;
29906;SDS011;16776;50.958;10.994;2024-02-28T01:52:13;8.48;;;4.35;;
29906;SDS011;16776;50.958;10.994;2024-02-28T01:54:40;7.07;;;4.10;;
29906;SDS011;16776;50.958;10.994;2024-02-28T01:57:07;7.03;;;4.55;;
29906;SDS011;16776;50.958;10.994;2024-02-28T01:59:36;8.13;;;3.95;;
29906;SDS011;16776;50.958;10.994;2024-02-28T02:02:03;6.53;;;4.15;;
29906;SDS011;16776;50.958;10.994;2024-02-28T02:04:29;8.18;;;4.45;;
29906;SDS011;16776;50.958;10.994;2024-02-28T02:06:56;7.40;;;4.40;;
29906;SDS011;16776;50.958;10.994;2024-02-28T02:09:25;7.20;;;4.30;;
29906;SDS011;16776;50.958;10.994;2024-02-28T02:11:52;6.28;;;3.97;;
29906;SDS011;16776;50.958;10.994;2024-02-28T02:14:18;8.25;;;4.03;;
29906;SDS011;16776;50.958;10.994;2024-02-28T02:16:46;6.70;;;3.80;;
29906;SDS011;16776;50.958;10.994;2024-02-28T02:19:13;5.53;;;3.97;;
29906;SDS011;16776;50.958;10.994;2024-02-28T02:21:41;8.02;;;4.28;;
29906;SDS011;16776;50.958;10.994;2024-02-28T02:24:16;6.78;;;4.05;;
29906;SDS011;16776;50.958;10.994;2024-02-28T02:26:42;6.85;;;4.32;;
29906;SDS011;16776;50.958;10.994;2024-02-28T02:29:11;7.55;;;4.22;;
29906;SDS011;16776;50.958;10.994;2024-02-28T02:31:38;6.38;;;3.95;;
29906;SDS011;16776;50.958;10.994;2024-02-28T02:34:05;6.63;;;4.25;;
29906;SDS011;16776;50.958;10.994;2024-02-28T02:36:32;7.97;;;4.10;;
29906;SDS011;16776;50.958;10.994;2024-02-28T02:38:58;5.50;;;3.75;;
29906;SDS011;16776;50.958;10.994;2024-02-28T02:41:26;8.93;;;4.20;;
29906;SDS011;16776;50.958;10.994;2024-02-28T02:43:53;7.10;;;4.25;;
29906;SDS011;16776;50.958;10.994;2024-02-28T02:46:20;7.28;;;3.75;;
29906;SDS011;16776;50.958;10.994;2024-02-28T02:48:46;8.93;;;4.13;;
29906;SDS011;16776;50.958;10.994;2024-02-28T02:51:13;9.70;;;4.28;;
29906;SDS011;16776;50.958;10.994;2024-02-28T02:53:40;6.68;;;4.25;;
29906;SDS011;16776;50.958;10.994;2024-02-28T02:56:06;7.88;;;4.22;;
29906;SDS011;16776;50.958;10.994;2024-02-28T02:58:34;7.35;;;4.57;;
29906;SDS011;16776;50.958;10.994;2024-02-28T03:01:01;7.93;;;4.18;;
29906;SDS011;16776;50.958;10.994;2024-02-28T03:03:28;5.95;;;3.90;;
29906;SDS011;16776;50.958;10.994;2024-02-28T03:05:54;7.15;;;4.28;;
29906;SDS011;16776;50.958;10.994;2024-02-28T03:08:21;6.00;;;3.95;;
29906;SDS011;16776;50.958;10.994;2024-02-28T03:10:47;6.10;;;3.67;;
29906;SDS011;16776;50.958;10.994;2024-02-28T03:13:14;6.22;;;3.83;;
29906;SDS011;16776;50.958;10.994;2024-02-28T03:15:42;5.13;;;3.25;;
29906;SDS011;16776;50.958;10.994;2024-02-28T03:18:08;5.30;;;3.90;;
29906;SDS011;16776;50.958;10.994;2024-02-28T03:20:35;5.90;;;3.88;;
29906;SDS011;16776;50.958;10.994;2024-02-28T03:23:03;5.15;;;3.60;;
29906;SDS011;16776;50.958;10.994;2024-02-28T03:25:30;5.18;;;3.78;;
29906;SDS011;16776;50.958;10.994;2024-02-28T03:27:57;5.75;;;3.47;;
29906;SDS011;16776;50.958;10.994;2024-02-28T03:30:24;4.95;;;3.53;;
29906;SDS011;16776;50.958;10.994;2024-02-28T03:32:52;4.47;;;3.42;;
29906;SDS011;16776;50.958;10.994;2024-02-28T03:35:19;5.95;;;3.35;;
29906;SDS011;16776;50.958;10.994;2024-02-28T03:37:46;5.40;;;4.18;;
29906;SDS011;16776;50.958;10.994;2024-02-28T03:40:13;6.05;;;3.58;;
29906;SDS011;16776;50.958;10.994;2024-02-28T03:42:40;5.53;;;4.00;;
29906;SDS011;16776;50.958;10.994;2024-02-28T03:45:07;4.95;;;3.80;;
29906;SDS011;16776;50.958;10.994;2024-02-28T03:47:34;5.32;;;3.72;;
29906;SDS011;16776;50.958;10.994;2024-02-28T03:50:02;5.20;;;3.63;;
29906;SDS011;16776;50.958;10.994;2024-02-28T03:52:29;6.75;;;4.40;;
29906;SDS011;16776;50.958;10.994;2024-02-28T03:54:56;5.88;;;4.20;;
29906;SDS011;16776;50.958;10.994;2024-02-28T03:57:23;5.70;;;3.88;;
29906;SDS011;16776;50.958;10.994;2024-02-28T03:59:49;5.65;;;3.78;;
29906;SDS011;16776;50.958;10.994;2024-02-28T04:02:16;6.07;;;4.15;;
29906;SDS011;16776;50.958;10.994;2024-02-28T04:04:42;5.63;;;3.92;;
29906;SDS011;16776;50.958;10.994;2024-02-28T04:07:10;5.32;;;4.05;;
29906;SDS011;16776;50.958;10.994;2024-02-28T04:09:37;6.47;;;4.03;;
29906;SDS011;16776;50.958;10.994;2024-02-28T04:12:04;5.43;;;3.83;;
29906;SDS011;16776;50.958;10.994;2024-02-28T04:14:30;6.55;;;3.90;;
29906;SDS011;16776;50.958;10.994;2024-02-28T04:16:57;5.97;;;4.13;;
29906;SDS011;16776;50.958;10.994;2024-02-28T04:19:23;5.68;;;3.83;;
29906;SDS011;16776;50.958;10.994;2024-02-28T04:21:51;5.72;;;4.10;;
29906;SDS011;16776;50.958;10.994;2024-02-28T04:24:19;6.65;;;4.10;;
29906;SDS011;16776;50.958;10.994;2024-02-28T04:26:45;4.00;;;3.30;;
29906;SDS011;16776;50.958;10.994;2024-02-28T04:29:12;5.57;;;3.83;;
29906;SDS011;16776;50.958;10.994;2024-02-28T04:31:39;6.47;;;3.70;;
29906;SDS011;16776;50.958;10.994;2024-02-28T04:34:05;7.88;;;4.32;;
29906;SDS011;16776;50.958;10.994;2024-02-28T04:36:32;4.82;;;3.88;;
29906;SDS011;16776;50.958;10.994;2024-02-28T04:38:59;5.57;;;3.92;;
29906;SDS011;16776;50.958;10.994;2024-02-28T04:41:27;5.45;;;3.80;;
29906;SDS011;16776;50.958;10.994;2024-02-28T04:43:54;7.28;;;4.25;;
29906;SDS011;16776;50.958;10.994;2024-02-28T04:46:20;5.22;;;4.05;;
29906;SDS011;16776;50.958;10.994;2024-02-28T04:48:47;5.88;;;4.03;;
29906;SDS011;16776;50.958;10.994;2024-02-28T04:51:15;5.65;;;3.92;;
29906;SDS011;16776;50.958;10.994;2024-02-28T04:53:42;6.47;;;4.07;;
29906;SDS011;16776;50.958;10.994;2024-02-28T04:56:09;5.18;;;3.45;;
29906;SDS011;16776;50.958;10.994;2024-02-28T04:58:37;5.60;;;4.07;;
29906;SDS011;16776;50.958;10.994;2024-02-28T05:01:04;7.75;;;4.80;;
29906;SDS011;16776;50.958;10.994;2024-02-28T05:03:31;7.22;;;4.72;;
29906;SDS011;16776;50.958;10.994;2024-02-28T05:05:57;6.65;;;4.13;;
29906;SDS011;16776;50.958;10.994;2024-02-28T05:08:24;5.90;;;4.22;;
29906;SDS011;16776;50.958;10.994;2024-02-28T05:10:52;7.25;;;4.50;;
29906;SDS011;16776;50.958;10.994;2024-02-28T05:13:18;5.00;;;3.78;;
29906;SDS011;16776;50.958;10.994;2024-02-28T05:15:48;5.03;;;3.83;;
29906;SDS011;16776;50.958;10.994;2024-02-28T05:18:15;5.70;;;4.05;;
29906;SDS011;16776;50.958;10.994;2024-02-28T05:20:42;5.03;;;3.70;;
29906;SDS011;16776;50.958;10.994;2024-02-28T05:23:09;6.05;;;4.22;;
29906;SDS011;16776;50.958;10.994;2024-02-28T05:25:35;6.38;;;4.20;;
29906;SDS011;16776;50.958;10.994;2024-02-28T05:28:01;7.47;;;4.90;;
29906;SDS011;16776;50.958;10.994;2024-02-28T05:30:27;7.75;;;4.50;;
29906;SDS011;16776;50.958;10.994;2024-02-28T05:32:55;7.10;;;4.18;;
29906;SDS011;16776;50.958;10.994;2024-02-28T05:35:22;5.38;;;3.75;;
29906;SDS011;16776;50.958;10.994;2024-02-28T05:37:52;5.38;;;4.20;;
29906;SDS011;16776;50.958;10.994;2024-02-28T05:40:19;7.00;;;4.13;;
29906;SDS011;16776;50.958;10.994;2024-02-28T05:42:46;5.45;;;4.10;;
29906;SDS011;16776;50.958;10.994;2024-02-28T05:45:13;5.30;;;4.07;;
29906;SDS011;16776;50.958;10.994;2024-02-28T05:47:39;5.70;;;4.30;;
29906;SDS011;16776;50.958;10.994;2024-02-28T05:50:07;6.20;;;4.70;;
29906;SDS011;16776;50.958;10.994;2024-02-28T05:52:35;7.35;;;4.30;;
29906;SDS011;16776;50.958;10.994;2024-02-28T05:55:02;6.15;;;4.53;;
29906;SDS011;16776;50.958;10.994;2024-02-28T05:57:28;4.93;;;3.78;;
29906;SDS011;16776;50.958;10.994;2024-02-28T05:59:55;6.80;;;4.32;;
29906;SDS011;16776;50.958;10.994;2024-02-28T06:02:21;5.80;;;4.05;;
29906;SDS011;16776;50.958;10.994;2024-02-28T06:04:48;4.93;;;3.45;;
29906;SDS011;16776;50.958;10.994;2024-02-28T06:07:16;7.70;;;3.60;;
29906;SDS011;16776;50.958;10.994;2024-02-28T06:09:43;9.23;;;4.05;;
29906;SDS011;16776;50.958;10.994;2024-02-28T06:12:09;5.60;;;3.90;;
29906;SDS011;16776;50.958;10.994;2024-02-28T06:14:36;5.45;;;3.83;;
29906;SDS011;16776;50.958;10.994;2024-02-28T06:17:02;6.60;;;3.72;;
29906;SDS011;16776;50.958;10.994;2024-02-28T06:19:29;4.72;;;3.50;;
29906;SDS011;16776;50.958;10.994;2024-02-28T06:21:55;6.93;;;3.67;;
29906;SDS011;16776;50.958;10.994;2024-02-28T06:24:23;8.50;;;3.67;;
29906;SDS011;16776;50.958;10.994;2024-02-28T06:26:50;6.35;;;3.85;;
29906;SDS011;16776;50.958;10.994;2024-02-28T06:29:17;6.35;;;3.97;;
29906;SDS011;16776;50.958;10.994;2024-02-28T06:31:49;6.05;;;4.07;;
29906;SDS011;16776;50.958;10.994;2024-02-28T06:34:16;5.93;;;3.38;;
29906;SDS011;16776;50.958;10.994;2024-02-28T06:36:43;6.25;;;4.00;;
29906;SDS011;16776;50.958;10.994;2024-02-28T06:39:09;5.25;;;3.65;;
29906;SDS011;16776;50.958;10.994;2024-02-28T06:41:37;6.57;;;4.35;;
29906;SDS011;16776;50.958;10.994;2024-02-28T06:44:04;7.22;;;4.57;;
29906;SDS011;16776;50.958;10.994;2024-02-28T06:46:30;6.55;;;4.28;;
29906;SDS011;16776;50.958;10.994;2024-02-28T06:48:57;5.20;;;3.42;;
29906;SDS011;16776;50.958;10.994;2024-02-28T06:51:23;5.50;;;3.40;;
29906;SDS011;16776;50.958;10.994;2024-02-28T06:53:50;6.05;;;3.80;;
29906;SDS011;16776;50.958;10.994;2024-02-28T06:56:16;5.20;;;3.63;;
29906;SDS011;16776;50.958;10.994;2024-02-28T06:58:44;6.50;;;3.83;;
29906;SDS011;16776;50.958;10.994;2024-02-28T07:01:11;5.65;;;3.28;;
29906;SDS011;16776;50.958;10.994;2024-02-28T07:03:37;5.60;;;3.88;;
29906;SDS011;16776;50.958;10.994;2024-02-28T07:06:04;4.43;;;3.08;;
29906;SDS011;16776;50.958;10.994;2024-02-28T07:08:31;4.20;;;2.95;;
29906;SDS011;16776;50.958;10.994;2024-02-28T07:10:58;5.85;;;3.80;;
29906;SDS011;16776;50.958;10.994;2024-02-28T07:13:24;6.40;;;3.60;;
29906;SDS011;16776;50.958;10.994;2024-02-28T07:15:53;5.95;;;4.10;;
29906;SDS011;16776;50.958;10.994;2024-02-28T07:18:22;5.50;;;3.65;;
29906;SDS011;16776;50.958;10.994;2024-02-28T07:20:51;4.40;;;3.03;;
29906;SDS011;16776;50.958;10.994;2024-02-28T07:23:18;5.30;;;3.58;;
29906;SDS011;16776;50.958;10.994;2024-02-28T07:25:44;7.05;;;4.60;;
29906;SDS011;16776;50.958;10.994;2024-02-28T07:28:11;5.35;;;3.63;;
29906;SDS011;16776;50.958;10.994;2024-02-28T07:30:38;7.72;;;4.32;;
29906;SDS011;16776;50.958;10.994;2024-02-28T07:33:06;4.68;;;3.40;;
29906;SDS011;16776;50.958;10.994;2024-02-28T07:35:43;5.45;;;3.72;;
29906;SDS011;16776;50.958;10.994;2024-02-28T07:38:10;4.55;;;3.55;;
29906;SDS011;16776;50.958;10.994;2024-02-28T07:40:36;5.00;;;3.58;;
29906;SDS011;16776;50.958;10.994;2024-02-28T07:43:03;4.13;;;3.60;;
29906;SDS011;16776;50.958;10.994;2024-02-28T07:45:30;6.15;;;4.40;;
29906;SDS011;16776;50.958;10.994;2024-02-28T07:47:56;6.40;;;3.70;;
29906;SDS011;16776;50.958;10.994;2024-02-28T07:50:24;5.88;;;3.90;;
29906;SDS011;16776;50.958;10.994;2024-02-28T07:52:53;6.50;;;3.88;;
29906;SDS011;16776;50.958;10.994;2024-02-28T07:55:20;6.63;;;4.45;;
29906;SDS011;16776;50.958;10.994;2024-02-28T07:57:47;8.52;;;4.88;;
29906;SDS011;16776;50.958;10.994;2024-02-28T08:00:16;6.05;;;3.90;;
29906;SDS011;16776;50.958;10.994;2024-02-28T08:02:44;7.05;;;5.00;;
29906;SDS011;16776;50.958;10.994;2024-02-28T08:05:10;7.00;;;4.35;;
29906;SDS011;16776;50.958;10.994;2024-02-28T08:07:38;7.65;;;4.40;;
29906;SDS011;16776;50.958;10.994;2024-02-28T08:10:05;4.72;;;3.53;;
29906;SDS011;16776;50.958;10.994;2024-02-28T08:12:32;6.78;;;4.30;;
29906;SDS011;16776;50.958;10.994;2024-02-28T08:14:59;6.78;;;3.70;;
29906;SDS011;16776;50.958;10.994;2024-02-28T08:17:25;4.78;;;3.83;;
29906;SDS011;16776;50.958;10.994;2024-02-28T08:19:52;6.38;;;4.00;;
29906;SDS011;16776;50.958;10.994;2024-02-28T08:22:20;6.63;;;4.47;;
29906;SDS011;16776;50.958;10.994;2024-02-28T08:24:48;7.78;;;5.10;;
29906;SDS011;16776;50.958;10.994;2024-02-28T08:27:17;5.93;;;4.10;;
29906;SDS011;16776;50.958;10.994;2024-02-28T08:29:43;8.02;;;4.60;;
29906;SDS011;16776;50.958;10.994;2024-02-28T08:32:11;5.47;;;3.75;;
29906;SDS011;16776;50.958;10.994;2024-02-28T08:34:38;6.80;;;4.30;;
29906;SDS011;16776;50.958;10.994;2024-02-28T08:37:04;5.95;;;3.90;;
29906;SDS011;16776;50.958;10.994;2024-02-28T08:39:31;7.10;;;4.40;;
29906;SDS011;16776;50.958;10.994;2024-02-28T08:41:59;6.28;;;4.22;;
29906;SDS011;16776;50.958;10.994;2024-02-28T08:44:25;6.53;;;3.95;;
29906;SDS011;16776;50.958;10.994;2024-02-28T08:46:52;4.82;;;3.40;;
29906;SDS011;16776;50.958;10.994;2024-02-28T08:49:18;5.88;;;3.58;;
29906;SDS011;16776;50.958;10.994;2024-02-28T08:51:45;5.85;;;4.03;;
29906;SDS011;16776;50.958;10.994;2024-02-28T08:54:12;5.13;;;3.60;;
29906;SDS011;16776;50.958;10.994;2024-02-28T08:56:38;5.72;;;4.38;;
29906;SDS011;16776;50.958;10.994;2024-02-28T08:59:06;5.97;;;4.40;;
29906;SDS011;16776;50.958;10.994;2024-02-28T09:01:33;4.97;;;3.83;;
29906;SDS011;16776;50.958;10.994;2024-02-28T09:04:01;5.57;;;4.32;;
29906;SDS011;16776;50.958;10.994;2024-02-28T09:06:27;5.05;;;3.50;;
29906;SDS011;16776;50.958;10.994;2024-02-28T09:08:54;6.18;;;4.15;;
29906;SDS011;16776;50.958;10.994;2024-02-28T09:11:20;5.60;;;4.10;;
29906;SDS011;16776;50.958;10.994;2024-02-28T09:13:47;6.95;;;4.43;;
29906;SDS011;16776;50.958;10.994;2024-02-28T09:16:15;6.13;;;4.40;;
29906;SDS011;16776;50.958;10.994;2024-02-28T09:18:41;6.00;;;4.25;;
29906;SDS011;16776;50.958;10.994;2024-02-28T09:21:08;6.43;;;4.38;;
29906;SDS011;16776;50.958;10.994;2024-02-28T09:23:35;6.75;;;4.70;;
29906;SDS011;16776;50.958;10.994;2024-02-28T09:26:02;4.72;;;4.10;;
29906;SDS011;16776;50.958;10.994;2024-02-28T09:28:29;6.13;;;4.20;;
29906;SDS011;16776;50.958;10.994;2024-02-28T09:30:59;5.43;;;4.50;;
29906;SDS011;16776;50.958;10.994;2024-02-28T09:33:26;5.82;;;4.25;;
29906;SDS011;16776;50.958;10.994;2024-02-28T09:35:53;5.60;;;4.38;;
29906;SDS011;16776;50.958;10.994;2024-02-28T09:38:20;5.63;;;4.05;;
29906;SDS011;16776;50.958;10.994;2024-02-28T09:40:46;5.40;;;4.32;;
29906;SDS011;16776;50.958;10.994;2024-02-28T09:43:15;7.07;;;4.43;;
29906;SDS011;16776;50.958;10.994;2024-02-28T09:45:48;5.55;;;4.43;;
29906;SDS011;16776;50.958;10.994;2024-02-28T09:48:15;6.53;;;4.68;;
29906;SDS011;16776;50.958;10.994;2024-02-28T09:50:44;6.15;;;4.70;;
29906;SDS011;16776;50.958;10.994;2024-02-28T09:53:11;7.15;;;4.85;;
29906;SDS011;16776;50.958;10.994;2024-02-28T09:55:38;7.82;;;5.43;;
29906;SDS011;16776;50.958;10.994;2024-02-28T09:58:04;5.95;;;4.50;;
29906;SDS011;16776;50.958;10.994;2024-02-28T10:00:31;7.20;;;4.70;;
29906;SDS011;16776;50.958;10.994;2024-02-28T10:02:59;6.75;;;4.53;;
29906;SDS011;16776;50.958;10.994;2024-02-28T10:05:28;6.20;;;4.82;;
29906;SDS011;16776;50.958;10.994;2024-02-28T10:07:56;7.30;;;5.03;;
29906;SDS011;16776;50.958;10.994;2024-02-28T10:10:23;7.40;;;5.20;;
29906;SDS011;16776;50.958;10.994;2024-02-28T10:12:50;8.00;;;5.15;;
29906;SDS011;16776;50.958;10.994;2024-02-28T10:15:19;7.68;;;5.22;;
29906;SDS011;16776;50.958;10.994;2024-02-28T10:17:47;5.90;;;4.68;;
29906;SDS011;16776;50.958;10.994;2024-02-28T10:20:13;7.15;;;5.10;;
29906;SDS011;16776;50.958;10.994;2024-02-28T10:22:40;11.32;;;5.75;;
29906;SDS011;16776;50.958;10.994;2024-02-28T10:25:08;6.05;;;5.45;;
29906;SDS011;16776;50.958;10.994;2024-02-28T10:27:35;7.13;;;5.25;;
29906;SDS011;16776;50.958;10.994;2024-02-28T10:30:02;7.20;;;5.50;;
29906;SDS011;16776;50.958;10.994;2024-02-28T10:32:30;8.55;;;5.30;;
29906;SDS011;16776;50.958;10.994;2024-02-28T10:34:56;8.60;;;5.28;;
29906;SDS011;16776;50.958;10.994;2024-02-28T10:37:28;8.77;;;5.45;;
29906;SDS011;16776;50.958;10.994;2024-02-28T10:39:56;6.80;;;5.35;;
29906;SDS011;16776;50.958;10.994;2024-02-28T10:42:26;11.52;;;5.90;;
29906;SDS011;16776;50.958;10.994;2024-02-28T10:44:56;8.00;;;5.63;;
29906;SDS011;16776;50.958;10.994;2024-02-28T10:47:24;6.70;;;5.32;;
29906;SDS011;16776;50.958;10.994;2024-02-28T10:49:51;6.70;;;5.63;;
29906;SDS011;16776;50.958;10.994;2024-02-28T10:52:18;7.28;;;5.75;;
29906;SDS011;16776;50.958;10.994;2024-02-28T10:54:48;8.00;;;5.95;;
29906;SDS011;16776;50.958;10.994;2024-02-28T10:57:20;7.50;;;5.63;;
29906;SDS011;16776;50.958;10.994;2024-02-28T10:59:51;7.75;;;5.65;;
29906;SDS011;16776;50.958;10.994;2024-02-28T11:02:19;7.63;;;5.25;;
29906;SDS011;16776;50.958;10.994;2024-02-28T11:04:47;7.78;;;6.20;;
29906;SDS011;16776;50.958;10.994;2024-02-28T11:07:23;7.82;;;5.55;;
29906;SDS011;16776;50.958;10.994;2024-02-28T11:09:53;6.43;;;5.53;;
29906;SDS011;16776;50.958;10.994;2024-02-28T11:12:24;6.88;;;5.50;;
29906;SDS011;16776;50.958;10.994;2024-02-28T11:14:57;6.57;;;5.32;;
29906;SDS011;16776;50.958;10.994;2024-02-28T11:17:28;8.13;;;5.43;;
29906;SDS011;16776;50.958;10.994;2024-02-28T11:19:56;5.57;;;4.82;;
29906;SDS011;16776;50.958;10.994;2024-02-28T11:22:22;6.93;;;4.85;;
29906;SDS011;16776;50.958;10.994;2024-02-28T11:24:53;6.10;;;4.85;;
29906;SDS011;16776;50.958;10.994;2024-02-28T11:27:20;6.13;;;4.30;;
29906;SDS011;16776;50.958;10.994;2024-02-28T11:29:47;7.38;;;4.97;;
29906;SDS011;16776;50.958;10.994;2024-02-28T11:32:16;6.20;;;4.60;;
29906;SDS011;16776;50.958;10.994;2024-02-28T11:34:42;7.05;;;5.70;;
29906;SDS011;16776;50.958;10.994;2024-02-28T11:37:10;6.85;;;5.35;;
29906;SDS011;16776;50.958;10.994;2024-02-28T11:39:37;6.40;;;4.40;;
29906;SDS011;16776;50.958;10.994;2024-02-28T11:42:10;4.88;;;3.72;;
29906;SDS011;16776;50.958;10.994;2024-02-28T11:44:38;5.13;;;3.72;;
29906;SDS011;16776;50.958;10.994;2024-02-28T11:47:05;4.75;;;3.53;;
29906;SDS011;16776;50.958;10.994;2024-02-28T11:49:35;7.18;;;3.15;;
29906;SDS011;16776;50.958;10.994;2024-02-28T11:52:02;2.97;;;2.63;;
29906;SDS011;16776;50.958;10.994;2024-02-28T11:54:30;4.28;;;2.88;;
29906;SDS011;16776;50.958;10.994;2024-02-28T11:56:56;3.42;;;2.97;;
29906;SDS011;16776;50.958;10.994;2024-02-28T11:59:23;3.20;;;2.60;;
29906;SDS011;16776;50.958;10.994;2024-02-28T12:01:49;3.53;;;3.00;;
29906;SDS011;16776;50.958;10.994;2024-02-28T12:04:17;3.00;;;2.70;;
29906;SDS011;16776;50.958;10.994;2024-02-28T12:06:45;2.92;;;2.65;;
29906;SDS011;16776;50.958;10.994;2024-02-28T12:09:12;3.03;;;2.40;;
29906;SDS011;16776;50.958;10.994;2024-02-28T12:11:39;2.90;;;2.30;;
29906;SDS011;16776;50.958;10.994;2024-02-28T12:14:06;2.95;;;2.25;;
29906;SDS011;16776;50.958;10.994;2024-02-28T12:16:35;2.80;;;2.40;;
29906;SDS011;16776;50.958;10.994;2024-02-28T12:19:02;2.35;;;2.15;;
29906;SDS011;16776;50.958;10.994;2024-02-28T12:21:29;3.22;;;2.33;;
29906;SDS011;16776;50.958;10.994;2024-02-28T12:23:57;3.08;;;2.40;;
29906;SDS011;16776;50.958;10.994;2024-02-28T12:26:24;2.72;;;2.35;;
29906;SDS011;16776;50.958;10.994;2024-02-28T12:28:50;3.28;;;2.65;;
29906;SDS011;16776;50.958;10.994;2024-02-28T12:31:17;3.00;;;2.47;;
29906;SDS011;16776;50.958;10.994;2024-02-28T12:33:44;3.47;;;2.53;;
29906;SDS011;16776;50.958;10.994;2024-02-28T12:36:10;3.30;;;2.63;;
29906;SDS011;16776;50.958;10.994;2024-02-28T12:38:37;4.32;;;2.53;;
29906;SDS011;16776;50.958;10.994;2024-02-28T12:41:05;3.53;;;2.70;;
29906;SDS011;16776;50.958;10.994;2024-02-28T12:43:31;3.05;;;2.70;;
29906;SDS011;16776;50.958;10.994;2024-02-28T12:45:58;3.58;;;2.83;;
29906;SDS011;16776;50.958;10.994;2024-02-28T12:48:25;3.03;;;2.53;;
29906;SDS011;16776;50.958;10.994;2024-02-28T12:51:00;4.50;;;3.05;;
29906;SDS011;16776;50.958;10.994;2024-02-28T12:53:27;4.90;;;3.47;;
29906;SDS011;16776;50.958;10.994;2024-02-28T12:55:53;5.85;;;3.58;;
29906;SDS011;16776;50.958;10.994;2024-02-28T12:58:21;3.63;;;2.97;;
29906;SDS011;16776;50.958;10.994;2024-02-28T13:00:48;4.13;;;3.22;;
29906;SDS011;16776;50.958;10.994;2024-02-28T13:03:15;3.88;;;3.00;;
29906;SDS011;16776;50.958;10.994;2024-02-28T13:05:42;4.38;;;3.38;;
29906;SDS011;16776;50.958;10.994;2024-02-28T13:08:09;3.42;;;3.10;;
29906;SDS011;16776;50.958;10.994;2024-02-28T13:10:36;4.57;;;2.88;;
29906;SDS011;16776;50.958;10.994;2024-02-28T13:13:06;4.18;;;3.15;;
29906;SDS011;16776;50.958;10.994;2024-02-28T13:15:34;3.97;;;3.08;;
29906;SDS011;16776;50.958;10.994;2024-02-28T13:18:00;3.65;;;3.03;;
29906;SDS011;16776;50.958;10.994;2024-02-28T13:20:32;4.03;;;3.13;;
29906;SDS011;16776;50.958;10.994;2024-02-28T13:22:59;3.35;;;2.58;;
29906;SDS011;16776;50.958;10.994;2024-02-28T13:25:25;4.85;;;2.83;;
29906;SDS011;16776;50.958;10.994;2024-02-28T13:27:52;3.00;;;2.70;;
29906;SDS011;16776;50.958;10.994;2024-02-28T13:30:18;3.45;;;3.05;;
29906;SDS011;16776;50.958;10.994;2024-02-28T13:32:46;4.35;;;3.45;;
29906;SDS011;16776;50.958;10.994;2024-02-28T13:35:13;4.32;;;3.10;;
29906;SDS011;16776;50.958;10.994;2024-02-28T13:37:40;4.30;;;3.30;;
29906;SDS011;16776;50.958;10.994;2024-02-28T13:40:07;5.32;;;3.10;;
29906;SDS011;16776;50.958;10.994;2024-02-28T13:42:35;4.68;;;2.90;;
29906;SDS011;16776;50.958;10.994;2024-02-28T13:45:02;3.72;;;2.85;;
29906;SDS011;16776;50.958;10.994;2024-02-28T13:47:32;4.25;;;2.97;;
29906;SDS011;16776;50.958;10.994;2024-02-28T13:50:00;3.55;;;2.70;;
29906;SDS011;16776;50.958;10.994;2024-02-28T13:52:27;4.43;;;3.20;;
29906;SDS011;16776;50.958;10.994;2024-02-28T13:54:54;3.95;;;3.33;;
29906;SDS011;16776;50.958;10.994;2024-02-28T13:57:20;3.92;;;3.22;;
29906;SDS011;16776;50.958;10.994;2024-02-28T13:59:47;3.85;;;2.58;;
29906;SDS011;16776;50.958;10.994;2024-02-28T14:02:14;4.78;;;3.38;;
29906;SDS011;16776;50.958;10.994;2024-02-28T14:04:41;3.88;;;3.33;;
29906;SDS011;16776;50.958;10.994;2024-02-28T14:07:09;3.92;;;3.30;;
29906;SDS011;16776;50.958;10.994;2024-02-28T14:09:35;3.88;;;2.97;;
29906;SDS011;16776;50.958;10.994;2024-02-28T14:12:02;3.65;;;3.28;;
29906;SDS011;16776;50.958;10.994;2024-02-28T14:14:29;3.15;;;2.42;;
29906;SDS011;16776;50.958;10.994;2024-02-28T14:16:56;2.88;;;2.58;;
29906;SDS011;16776;50.958;10.994;2024-02-28T14:19:22;3.40;;;2.63;;
29906;SDS011;16776;50.958;10.994;2024-02-28T14:21:49;3.92;;;3.13;;
29906;SDS011;16776;50.958;10.994;2024-02-28T14:24:17;3.42;;;2.65;;
29906;SDS011;16776;50.958;10.994;2024-02-28T14:26:45;4.93;;;3.15;;
29906;SDS011;16776;50.958;10.994;2024-02-28T14:29:11;4.03;;;3.20;;
29906;SDS011;16776;50.958;10.994;2024-02-28T14:31:38;3.67;;;2.75;;
29906;SDS011;16776;50.958;10.994;2024-02-28T14:34:05;3.75;;;2.83;;